sensor_id;sensor_type;location;lat;lon;timestamp;pressure;altitude;pressure_sealevel;temperature;humidity
70343;BME280;57767;42.068;24.752;2022-09-09T00:00:37;99089.28;;;20.03;55.06
70343;BME280;57767;42.068;24.752;2022-09-09T00:02:47;99092.50;;;20.06;55.28
70343;BME280;57767;42.068;24.752;2022-09-09T00:04:28;99093.56;;;20.04;55.56
70343;BME280;57767;42.068;24.752;2022-09-09T00:05:41;99094.13;;;20.07;56.25
70343;BME280;57767;42.068;24.752;2022-09-09T00:08:13;99084.97;;;20.02;56.90
70343;BME280;57767;42.068;24.752;2022-09-09T00:09:21;99087.66;;;20.02;56.39
70343;BME280;57767;42.068;24.752;2022-09-09T00:10:58;99085.28;;;20.01;56.35
70343;BME280;57767;42.068;24.752;2022-09-09T00:12:18;99089.28;;;20.03;56.71
70343;BME280;57767;42.068;24.752;2022-09-09T00:13:34;99092.75;;;19.99;57.12
70343;BME280;57767;42.068;24.752;2022-09-09T00:14:58;99095.44;;;19.99;58.12
70343;BME280;57767;42.068;24.752;2022-09-09T00:16:28;99099.19;;;19.98;57.71
70343;BME280;57767;42.068;24.752;2022-09-09T00:17:41;99086.81;;;19.92;57.95
70343;BME280;57767;42.068;24.752;2022-09-09T00:20:30;99098.63;;;19.91;58.30
70343;BME280;57767;42.068;24.752;2022-09-09T00:21:38;99095.94;;;19.86;58.21
70343;BME280;57767;42.068;24.752;2022-09-09T00:24:44;99098.56;;;19.76;58.22
70343;BME280;57767;42.068;24.752;2022-09-09T00:27:06;99097.88;;;19.48;57.75
70343;BME280;57767;42.068;24.752;2022-09-09T00:28:18;99097.25;;;19.36;57.85
70343;BME280;57767;42.068;24.752;2022-09-09T00:30:31;99098.28;;;19.30;58.29
70343;BME280;57767;42.068;24.752;2022-09-09T00:31:35;99089.13;;;19.21;58.76
70343;BME280;57767;42.068;24.752;2022-09-09T00:32:38;99097.13;;;19.16;59.01
70343;BME280;57767;42.068;24.752;2022-09-09T00:33:41;99078.28;;;19.01;58.15
70343;BME280;57767;42.068;24.752;2022-09-09T00:34:54;99083.13;;;19.04;58.18
70343;BME280;57767;42.068;24.752;2022-09-09T00:35:58;99092.25;;;19.08;58.15
70343;BME280;57767;42.068;24.752;2022-09-09T00:37:00;99090.59;;;19.02;57.75
70343;BME280;57767;42.068;24.752;2022-09-09T00:38:10;99103.44;;;19.00;57.94
70343;BME280;57767;42.068;24.752;2022-09-09T00:39:31;99099.69;;;19.01;58.17
70343;BME280;57767;42.068;24.752;2022-09-09T00:40:38;99101.84;;;18.99;58.65
70343;BME280;57767;42.068;24.752;2022-09-09T00:43:12;99108.81;;;19.00;58.23
70343;BME280;57767;42.068;24.752;2022-09-09T00:44:31;99114.16;;;19.00;59.36
70343;BME280;57767;42.068;24.752;2022-09-09T00:45:58;99106.63;;;18.96;59.63
70343;BME280;57767;42.068;24.752;2022-09-09T00:50:46;99088.63;;;18.87;59.24
70343;BME280;57767;42.068;24.752;2022-09-09T00:54:59;99097.97;;;18.84;60.27
70343;BME280;57767;42.068;24.752;2022-09-09T00:56:20;99102.25;;;18.85;60.09
70343;BME280;57767;42.068;24.752;2022-09-09T00:57:29;99106.28;;;18.88;60.04
70343;BME280;57767;42.068;24.752;2022-09-09T00:58:32;99086.16;;;18.80;60.80
70343;BME280;57767;42.068;24.752;2022-09-09T00:59:46;99110.03;;;18.87;60.75
70343;BME280;57767;42.068;24.752;2022-09-09T01:01:08;99093.63;;;18.78;60.18
70343;BME280;57767;42.068;24.752;2022-09-09T01:04:53;99107.88;;;18.89;61.15
70343;BME280;57767;42.068;24.752;2022-09-09T01:06:12;99114.03;;;18.89;61.02
70343;BME280;57767;42.068;24.752;2022-09-09T01:07:17;99112.44;;;18.88;60.71
70343;BME280;57767;42.068;24.752;2022-09-09T01:09:52;99121.31;;;18.94;60.32
70343;BME280;57767;42.068;24.752;2022-09-09T01:10:56;99117.84;;;18.93;60.55
70343;BME280;57767;42.068;24.752;2022-09-09T01:12:10;99115.41;;;18.92;61.02
70343;BME280;57767;42.068;24.752;2022-09-09T01:13:25;99109.81;;;18.93;60.98
70343;BME280;57767;42.068;24.752;2022-09-09T01:15:36;99114.91;;;18.95;61.38
70343;BME280;57767;42.068;24.752;2022-09-09T01:16:40;99116.78;;;18.94;61.91
70343;BME280;57767;42.068;24.752;2022-09-09T01:17:50;99113.53;;;18.92;61.47
70343;BME280;57767;42.068;24.752;2022-09-09T01:18:54;99114.59;;;18.91;61.39
70343;BME280;57767;42.068;24.752;2022-09-09T01:20:13;99110.31;;;18.90;61.19
70343;BME280;57767;42.068;24.752;2022-09-09T01:24:27;99084.78;;;18.78;60.94
70343;BME280;57767;42.068;24.752;2022-09-09T01:27:03;99101.47;;;18.85;61.13
70343;BME280;57767;42.068;24.752;2022-09-09T01:28:10;99091.75;;;18.74;60.68
70343;BME280;57767;42.068;24.752;2022-09-09T01:29:17;99092.00;;;18.72;61.18
70343;BME280;57767;42.068;24.752;2022-09-09T01:30:20;99108.63;;;18.79;61.50
70343;BME280;57767;42.068;24.752;2022-09-09T01:31:40;99110.75;;;18.77;61.14
70343;BME280;57767;42.068;24.752;2022-09-09T01:32:48;99110.75;;;18.77;61.30
70343;BME280;57767;42.068;24.752;2022-09-09T01:33:50;99095.41;;;18.68;61.98
70343;BME280;57767;42.068;24.752;2022-09-09T01:34:52;99101.63;;;18.73;61.94
70343;BME280;57767;42.068;24.752;2022-09-09T01:35:58;99108.03;;;18.72;62.09
70343;BME280;57767;42.068;24.752;2022-09-09T01:37:07;99103.50;;;18.73;61.93
70343;BME280;57767;42.068;24.752;2022-09-09T01:38:10;99107.78;;;18.74;62.13
70343;BME280;57767;42.068;24.752;2022-09-09T01:39:12;99102.69;;;18.72;62.23
70343;BME280;57767;42.068;24.752;2022-09-09T01:40:14;99103.50;;;18.73;62.04
70343;BME280;57767;42.068;24.752;2022-09-09T01:41:17;99092.44;;;18.64;62.03
70343;BME280;57767;42.068;24.752;2022-09-09T01:42:18;99102.69;;;18.72;62.07
70343;BME280;57767;42.068;24.752;2022-09-09T01:43:22;99103.19;;;18.69;62.16
70343;BME280;57767;42.068;24.752;2022-09-09T01:44:25;99098.81;;;18.58;62.24
70343;BME280;57767;42.068;24.752;2022-09-09T01:45:28;99096.69;;;18.60;62.08
70343;BME280;57767;42.068;24.752;2022-09-09T01:46:30;99086.72;;;18.55;62.29
70343;BME280;57767;42.068;24.752;2022-09-09T01:47:32;99101.00;;;18.61;62.43
70343;BME280;57767;42.068;24.752;2022-09-09T01:48:33;99104.72;;;18.60;62.59
70343;BME280;57767;42.068;24.752;2022-09-09T01:49:35;99104.38;;;18.56;62.36
70343;BME280;57767;42.068;24.752;2022-09-09T01:50:37;99104.63;;;18.55;62.03
70343;BME280;57767;42.068;24.752;2022-09-09T01:51:40;99097.63;;;18.49;62.61
70343;BME280;57767;42.068;24.752;2022-09-09T01:52:46;99087.94;;;18.43;62.94
70343;BME280;57767;42.068;24.752;2022-09-09T01:53:50;99099.53;;;18.53;62.78
70343;BME280;57767;42.068;24.752;2022-09-09T01:54:52;99102.22;;;18.53;62.57
70343;BME280;57767;42.068;24.752;2022-09-09T01:57:52;99105.38;;;18.50;62.28
70343;BME280;57767;42.068;24.752;2022-09-09T02:00:24;99102.91;;;18.44;62.58
70343;BME280;57767;42.068;24.752;2022-09-09T02:01:39;99105.09;;;18.47;62.33
70343;BME280;57767;42.068;24.752;2022-09-09T02:03:56;99093.50;;;18.36;62.27
70343;BME280;57767;42.068;24.752;2022-09-09T02:05:57;99095.38;;;18.36;62.09
70343;BME280;57767;42.068;24.752;2022-09-09T02:06:35;99098.88;;;18.41;62.46
70343;BME280;57767;42.068;24.752;2022-09-09T02:07:46;99103.91;;;18.38;62.28
70343;BME280;57767;42.068;24.752;2022-09-09T02:08:50;99098.31;;;18.39;62.15
70343;BME280;57767;42.068;24.752;2022-09-09T02:11:20;99098.56;;;18.38;62.64
70343;BME280;57767;42.068;24.752;2022-09-09T02:12:23;99097.50;;;18.39;61.98
70343;BME280;57767;42.068;24.752;2022-09-09T02:13:28;99092.13;;;18.34;62.36
70343;BME280;57767;42.068;24.752;2022-09-09T02:14:35;99104.47;;;18.40;62.36
70343;BME280;57767;42.068;24.752;2022-09-09T02:15:47;99100.50;;;18.42;62.14
70343;BME280;57767;42.068;24.752;2022-09-09T02:16:56;99095.41;;;18.41;61.56
70343;BME280;57767;42.068;24.752;2022-09-09T02:18:00;99106.16;;;18.46;61.95
70343;BME280;57767;42.068;24.752;2022-09-09T02:19:19;99097.31;;;18.45;62.44
70343;BME280;57767;42.068;24.752;2022-09-09T02:20:27;99101.88;;;18.45;62.10
70343;BME280;57767;42.068;24.752;2022-09-09T02:21:35;99090.59;;;18.43;62.57
70343;BME280;57767;42.068;24.752;2022-09-09T02:22:39;99078.78;;;18.34;62.97
70343;BME280;57767;42.068;24.752;2022-09-09T02:23:44;99089.81;;;18.42;62.94
70343;BME280;57767;42.068;24.752;2022-09-09T02:24:49;99070.75;;;18.34;62.69
70343;BME280;57767;42.068;24.752;2022-09-09T02:25:55;99082.59;;;18.43;62.41
70343;BME280;57767;42.068;24.752;2022-09-09T02:27:00;99055.38;;;18.19;62.61
70343;BME280;57767;42.068;24.752;2022-09-09T02:28:06;99087.34;;;18.36;63.12
70343;BME280;57767;42.068;24.752;2022-09-09T02:29:33;99089.22;;;18.35;62.78
70343;BME280;57767;42.068;24.752;2022-09-09T02:30:37;99086.25;;;18.37;62.67
70343;BME280;57767;42.068;24.752;2022-09-09T02:31:41;99093.78;;;18.40;62.50
70343;BME280;57767;42.068;24.752;2022-09-09T02:32:45;99089.56;;;18.44;61.56
70343;BME280;57767;42.068;24.752;2022-09-09T02:33:52;99089.75;;;18.37;62.36
70343;BME280;57767;42.068;24.752;2022-09-09T02:35:13;99088.84;;;18.26;62.60
70343;BME280;57767;42.068;24.752;2022-09-09T02:36:16;99084.88;;;18.29;62.35
70343;BME280;57767;42.068;24.752;2022-09-09T02:37:20;99085.66;;;18.30;62.16
70343;BME280;57767;42.068;24.752;2022-09-09T02:38:26;99092.63;;;18.31;61.88
70343;BME280;57767;42.068;24.752;2022-09-09T02:39:30;99094.50;;;18.30;61.94
70343;BME280;57767;42.068;24.752;2022-09-09T02:40:32;99083.50;;;18.26;61.85
70343;BME280;57767;42.068;24.752;2022-09-09T02:41:35;99093.44;;;18.31;61.81
70343;BME280;57767;42.068;24.752;2022-09-09T02:42:39;99073.81;;;18.20;61.98
70343;BME280;57767;42.068;24.752;2022-09-09T02:43:41;99086.47;;;18.30;62.02
70343;BME280;57767;42.068;24.752;2022-09-09T02:44:44;99088.34;;;18.30;62.37
70343;BME280;57767;42.068;24.752;2022-09-09T02:47:26;99095.31;;;18.31;61.50
70343;BME280;57767;42.068;24.752;2022-09-09T02:48:52;99099.03;;;18.30;61.59
70343;BME280;57767;42.068;24.752;2022-09-09T02:51:21;99092.38;;;18.32;61.91
70343;BME280;57767;42.068;24.752;2022-09-09T02:56:32;99094.28;;;18.37;61.42
70343;BME280;57767;42.068;24.752;2022-09-09T02:57:38;99103.91;;;18.38;61.38
70343;BME280;57767;42.068;24.752;2022-09-09T02:58:40;99106.59;;;18.38;61.38
70343;BME280;57767;42.068;24.752;2022-09-09T02:59:44;99104.97;;;18.37;61.07
70343;BME280;57767;42.068;24.752;2022-09-09T03:00:48;99113.81;;;18.37;61.34
70343;BME280;57767;42.068;24.752;2022-09-09T03:01:50;99107.66;;;18.37;61.56
70343;BME280;57767;42.068;24.752;2022-09-09T03:02:52;99103.38;;;18.36;61.80
70343;BME280;57767;42.068;24.752;2022-09-09T03:03:55;99047.69;;;18.01;61.71
70343;BME280;57767;42.068;24.752;2022-09-09T03:04:57;99108.41;;;18.32;61.56
70343;BME280;57767;42.068;24.752;2022-09-09T03:05:59;99107.63;;;18.32;61.71
70343;BME280;57767;42.068;24.752;2022-09-09T03:07:01;99104.38;;;18.30;62.18
70343;BME280;57767;42.068;24.752;2022-09-09T03:08:05;99101.72;;;18.30;62.04
70343;BME280;57767;42.068;24.752;2022-09-09T03:09:07;99084.50;;;18.20;61.63
70343;BME280;57767;42.068;24.752;2022-09-09T03:10:10;99107.53;;;18.26;62.39
70343;BME280;57767;42.068;24.752;2022-09-09T03:11:12;99107.78;;;18.25;63.36
70343;BME280;57767;42.068;24.752;2022-09-09T03:12:15;99097.31;;;18.18;63.44
70343;BME280;57767;42.068;24.752;2022-09-09T03:13:17;99100.06;;;18.23;62.96
70343;BME280;57767;42.068;24.752;2022-09-09T03:14:21;99109.94;;;18.23;62.95
70343;BME280;57767;42.068;24.752;2022-09-09T03:15:26;99096.75;;;18.16;63.11
70343;BME280;57767;42.068;24.752;2022-09-09T03:16:31;99105.34;;;18.18;63.52
70343;BME280;57767;42.068;24.752;2022-09-09T03:17:34;99108.81;;;18.19;63.55
70343;BME280;57767;42.068;24.752;2022-09-09T03:18:36;99111.75;;;18.17;63.35
70343;BME280;57767;42.068;24.752;2022-09-09T03:19:38;99105.28;;;18.13;63.08
70343;BME280;57767;42.068;24.752;2022-09-09T03:20:41;99114.91;;;18.14;63.39
70343;BME280;57767;42.068;24.752;2022-09-09T03:21:43;99106.06;;;18.14;63.41
70343;BME280;57767;42.068;24.752;2022-09-09T03:22:45;99117.28;;;18.11;63.41
70343;BME280;57767;42.068;24.752;2022-09-09T03:23:47;99109.19;;;18.06;63.56
70343;BME280;57767;42.068;24.752;2022-09-09T03:24:48;99102.50;;;18.03;63.23
70343;BME280;57767;42.068;24.752;2022-09-09T03:25:50;99110.56;;;18.08;63.18
70343;BME280;57767;42.068;24.752;2022-09-09T03:26:53;99114.31;;;18.07;63.00
70343;BME280;57767;42.068;24.752;2022-09-09T03:27:57;99123.94;;;18.08;63.60
70343;BME280;57767;42.068;24.752;2022-09-09T03:28:58;99116.16;;;18.07;63.43
70343;BME280;57767;42.068;24.752;2022-09-09T03:30:02;99116.97;;;18.07;63.70
70343;BME280;57767;42.068;24.752;2022-09-09T03:31:05;99120.22;;;18.09;63.45
70343;BME280;57767;42.068;24.752;2022-09-09T03:32:07;99110.50;;;18.03;62.76
70343;BME280;57767;42.068;24.752;2022-09-09T03:33:11;99120.22;;;18.09;62.54
70343;BME280;57767;42.068;24.752;2022-09-09T03:34:14;99119.69;;;18.12;62.69
70343;BME280;57767;42.068;24.752;2022-09-09T03:35:15;99130.38;;;18.12;62.84
70343;BME280;57767;42.068;24.752;2022-09-09T03:36:17;99122.34;;;18.12;63.29
70343;BME280;57767;42.068;24.752;2022-09-09T03:37:19;99125.56;;;18.09;63.30
70343;BME280;57767;42.068;24.752;2022-09-09T03:38:21;99133.59;;;18.14;62.66
70343;BME280;57767;42.068;24.752;2022-09-09T03:39:23;99136.03;;;18.16;62.68
70343;BME280;57767;42.068;24.752;2022-09-09T03:40:25;99135.22;;;18.15;62.74
70343;BME280;57767;42.068;24.752;2022-09-09T03:41:26;99136.84;;;18.16;62.54
70343;BME280;57767;42.068;24.752;2022-09-09T03:42:28;99129.28;;;18.08;62.94
70343;BME280;57767;42.068;24.752;2022-09-09T03:43:31;99121.50;;;18.07;62.98
70343;BME280;57767;42.068;24.752;2022-09-09T03:44:34;99132.81;;;18.14;62.36
70343;BME280;57767;42.068;24.752;2022-09-09T03:45:35;99140.56;;;18.15;62.67
70343;BME280;57767;42.068;24.752;2022-09-09T03:46:37;99135.22;;;18.15;62.77
70343;BME280;57767;42.068;24.752;2022-09-09T03:47:39;99141.38;;;18.16;62.65
70343;BME280;57767;42.068;24.752;2022-09-09T03:48:41;99149.16;;;18.17;62.58
70343;BME280;57767;42.068;24.752;2022-09-09T03:49:43;99140.56;;;18.15;62.58
70343;BME280;57767;42.068;24.752;2022-09-09T03:50:46;99139.75;;;18.15;62.24
70343;BME280;57767;42.068;24.752;2022-09-09T03:51:48;99140.56;;;18.15;62.34
70343;BME280;57767;42.068;24.752;2022-09-09T03:52:50;99137.34;;;18.13;62.30
70343;BME280;57767;42.068;24.752;2022-09-09T03:53:52;99124.44;;;18.05;62.04
70343;BME280;57767;42.068;24.752;2022-09-09T03:54:58;99134.66;;;18.13;61.93
70343;BME280;57767;42.068;24.752;2022-09-09T03:55:59;99133.59;;;18.14;62.11
70343;BME280;57767;42.068;24.752;2022-09-09T03:57:02;99140.81;;;18.14;62.44
70343;BME280;57767;42.068;24.752;2022-09-09T03:58:04;99111.81;;;18.01;62.49
70343;BME280;57767;42.068;24.752;2022-09-09T03:59:06;99134.09;;;18.11;62.88
70343;BME280;57767;42.068;24.752;2022-09-09T04:00:08;99113.13;;;17.98;62.88
70343;BME280;57767;42.068;24.752;2022-09-09T04:01:13;99130.09;;;18.09;62.65
70343;BME280;57767;42.068;24.752;2022-09-09T04:02:15;99123.94;;;18.08;62.67
70343;BME280;57767;42.068;24.752;2022-09-09T04:03:17;99124.44;;;18.05;62.69
70343;BME280;57767;42.068;24.752;2022-09-09T04:04:18;99099.22;;;17.96;62.46
70343;BME280;57767;42.068;24.752;2022-09-09T04:05:21;99132.50;;;18.10;62.32
70343;BME280;57767;42.068;24.752;2022-09-09T04:06:23;99112.94;;;18.05;62.27
70343;BME280;57767;42.068;24.752;2022-09-09T04:07:25;99118.88;;;18.12;62.52
70343;BME280;57767;42.068;24.752;2022-09-09T04:08:29;99120.25;;;18.14;62.87
70343;BME280;57767;42.068;24.752;2022-09-09T04:09:33;99124.53;;;18.15;62.74
70343;BME280;57767;42.068;24.752;2022-09-09T04:10:35;99107.59;;;18.05;62.45
70343;BME280;57767;42.068;24.752;2022-09-09T04:11:40;99111.63;;;18.07;62.39
70343;BME280;57767;42.068;24.752;2022-09-09T04:12:42;99114.88;;;18.09;62.68
70343;BME280;57767;42.068;24.752;2022-09-09T04:13:49;99103.38;;;18.09;62.54
70343;BME280;57767;42.068;24.752;2022-09-09T04:14:50;99121.94;;;18.20;62.35
70343;BME280;57767;42.068;24.752;2022-09-09T04:15:54;99130.50;;;18.22;62.73
70343;BME280;57767;42.068;24.752;2022-09-09T04:16:56;99106.16;;;18.19;62.96
70343;BME280;57767;42.068;24.752;2022-09-09T04:17:58;99109.13;;;18.22;62.92
70343;BME280;57767;42.068;24.752;2022-09-09T04:19:00;99114.56;;;18.33;62.61
70343;BME280;57767;42.068;24.752;2022-09-09T04:20:03;99116.22;;;18.39;62.36
70343;BME280;57767;42.068;24.752;2022-09-09T04:21:05;99124.88;;;18.46;62.29
70343;BME280;57767;42.068;24.752;2022-09-09T04:22:08;99127.81;;;18.49;62.24
70343;BME280;57767;42.068;24.752;2022-09-09T04:23:10;99112.81;;;18.43;61.70
70343;BME280;57767;42.068;24.752;2022-09-09T04:24:12;99108.81;;;18.46;61.72
70343;BME280;57767;42.068;24.752;2022-09-09T04:25:14;99125.56;;;18.58;61.68
70343;BME280;57767;42.068;24.752;2022-09-09T04:26:16;99123.97;;;18.62;62.00
70343;BME280;57767;42.068;24.752;2022-09-09T04:27:18;99123.78;;;18.69;62.42
70343;BME280;57767;42.068;24.752;2022-09-09T04:28:22;99123.03;;;18.73;61.68
70343;BME280;57767;42.068;24.752;2022-09-09T04:29:24;99122.56;;;18.81;61.85
70343;BME280;57767;42.068;24.752;2022-09-09T04:30:26;99125.81;;;18.88;61.54
70343;BME280;57767;42.068;24.752;2022-09-09T04:31:29;99095.56;;;18.83;61.54
70343;BME280;57767;42.068;24.752;2022-09-09T04:32:32;99103.94;;;18.96;61.47
70343;BME280;57767;42.068;24.752;2022-09-09T04:33:35;99117.97;;;19.14;61.28
70343;BME280;57767;42.068;24.752;2022-09-09T04:34:40;99114.84;;;19.22;61.25
70343;BME280;57767;42.068;24.752;2022-09-09T04:35:49;99123.75;;;19.32;61.61
70343;BME280;57767;42.068;24.752;2022-09-09T04:36:51;99120.06;;;19.44;60.89
70343;BME280;57767;42.068;24.752;2022-09-09T04:37:53;99110.16;;;19.44;60.67
70343;BME280;57767;42.068;24.752;2022-09-09T04:38:55;99124.75;;;19.63;60.93
70343;BME280;57767;42.068;24.752;2022-09-09T04:39:56;99126.16;;;19.76;60.50
70343;BME280;57767;42.068;24.752;2022-09-09T04:40:58;99127.53;;;19.89;60.26
70343;BME280;57767;42.068;24.752;2022-09-09T04:42:00;99132.41;;;20.02;59.49
70343;BME280;57767;42.068;24.752;2022-09-09T04:43:03;99118.78;;;20.09;59.46
70343;BME280;57767;42.068;24.752;2022-09-09T04:44:06;99122.88;;;20.26;58.67
70343;BME280;57767;42.068;24.752;2022-09-09T04:45:08;99129.66;;;20.39;58.38
70343;BME280;57767;42.068;24.752;2022-09-09T04:46:12;99126.97;;;20.49;58.20
70343;BME280;57767;42.068;24.752;2022-09-09T04:47:14;99127.25;;;20.63;57.84
70343;BME280;57767;42.068;24.752;2022-09-09T04:48:15;99127.00;;;20.74;57.14
70343;BME280;57767;42.068;24.752;2022-09-09T04:49:17;99120.81;;;20.79;57.56
70343;BME280;57767;42.068;24.752;2022-09-09T04:50:19;99092.38;;;20.73;57.84
70343;BME280;57767;42.068;24.752;2022-09-09T04:51:21;99122.44;;;21.00;57.30
70343;BME280;57767;42.068;24.752;2022-09-09T04:52:23;99132.66;;;21.24;56.32
70343;BME280;57767;42.068;24.752;2022-09-09T04:53:25;99135.34;;;21.39;55.22
70343;BME280;57767;42.068;24.752;2022-09-09T04:54:27;99129.91;;;21.54;54.76
70343;BME280;57767;42.068;24.752;2022-09-09T04:55:29;99127.50;;;21.58;55.07
70343;BME280;57767;42.068;24.752;2022-09-09T04:56:31;99143.28;;;21.79;54.00
70343;BME280;57767;42.068;24.752;2022-09-09T04:57:34;99139.72;;;21.94;53.42
70343;BME280;57767;42.068;24.752;2022-09-09T04:58:36;99123.31;;;21.96;52.93
70343;BME280;57767;42.068;24.752;2022-09-09T04:59:38;99138.56;;;22.21;51.67
70343;BME280;57767;42.068;24.752;2022-09-09T05:00:40;99146.31;;;22.32;52.32
70343;BME280;57767;42.068;24.752;2022-09-09T05:01:43;99146.78;;;22.44;51.14
70343;BME280;57767;42.068;24.752;2022-09-09T05:02:45;99152.34;;;22.58;51.12
70343;BME280;57767;42.068;24.752;2022-09-09T05:03:48;99161.41;;;22.72;50.90
70343;BME280;57767;42.068;24.752;2022-09-09T05:04:50;99160.84;;;22.80;51.42
70343;BME280;57767;42.068;24.752;2022-09-09T05:05:52;99137.94;;;22.83;50.66
70343;BME280;57767;42.068;24.752;2022-09-09T05:06:55;99154.75;;;23.04;50.07
70343;BME280;57767;42.068;24.752;2022-09-09T05:08:05;99149.28;;;23.14;49.54
70343;BME280;57767;42.068;24.752;2022-09-09T05:09:08;99136.34;;;23.16;49.98
70343;BME280;57767;42.068;24.752;2022-09-09T05:10:09;99149.66;;;23.31;50.49
70343;BME280;57767;42.068;24.752;2022-09-09T05:11:19;99155.69;;;23.47;48.23
70343;BME280;57767;42.068;24.752;2022-09-09T05:12:20;99150.75;;;23.59;48.36
70343;BME280;57767;42.068;24.752;2022-09-09T05:13:26;99146.56;;;23.72;48.53
70343;BME280;57767;42.068;24.752;2022-09-09T05:14:29;99148.59;;;23.85;48.60
70343;BME280;57767;42.068;24.752;2022-09-09T05:15:31;99145.47;;;23.97;47.43
70343;BME280;57767;42.068;24.752;2022-09-09T05:16:33;99142.03;;;24.15;47.66
70343;BME280;57767;42.068;24.752;2022-09-09T05:17:35;99143.75;;;24.30;47.72
70343;BME280;57767;42.068;24.752;2022-09-09T05:18:38;99137.34;;;24.44;47.53
70343;BME280;57767;42.068;24.752;2022-09-09T05:19:40;99145.66;;;24.67;47.41
70343;BME280;57767;42.068;24.752;2022-09-09T05:20:41;99144.31;;;24.83;47.50
70343;BME280;57767;42.068;24.752;2022-09-09T05:21:43;99141.91;;;25.00;46.83
70343;BME280;57767;42.068;24.752;2022-09-09T05:22:45;99137.63;;;25.13;46.35
70343;BME280;57767;42.068;24.752;2022-09-09T05:23:47;99136.19;;;25.34;46.84
70343;BME280;57767;42.068;24.752;2022-09-09T05:24:49;99143.03;;;25.59;46.36
70343;BME280;57767;42.068;24.752;2022-09-09T05:25:57;99143.19;;;25.81;45.82
70343;BME280;57767;42.068;24.752;2022-09-09T05:26:59;99140.66;;;25.98;43.45
70343;BME280;57767;42.068;24.752;2022-09-09T05:28:03;99142.44;;;26.17;43.46
70343;BME280;57767;42.068;24.752;2022-09-09T05:29:05;99138.34;;;26.33;42.46
70343;BME280;57767;42.068;24.752;2022-09-09T05:30:08;99143.72;;;26.47;42.76
70343;BME280;57767;42.068;24.752;2022-09-09T05:31:11;99128.06;;;26.57;42.47
70343;BME280;57767;42.068;24.752;2022-09-09T05:32:14;99130.88;;;26.74;41.02
70343;BME280;57767;42.068;24.752;2022-09-09T05:33:17;99134.13;;;26.85;41.68
70343;BME280;57767;42.068;24.752;2022-09-09T05:34:19;99097.56;;;26.74;41.22
70343;BME280;57767;42.068;24.752;2022-09-09T05:35:22;99114.53;;;27.02;40.51
70343;BME280;57767;42.068;24.752;2022-09-09T05:36:24;99129.78;;;27.20;40.40
70343;BME280;57767;42.068;24.752;2022-09-09T05:37:26;99129.53;;;27.30;40.15
70343;BME280;57767;42.068;24.752;2022-09-09T05:38:28;99131.16;;;27.40;39.31
70343;BME280;57767;42.068;24.752;2022-09-09T05:39:30;99126.09;;;27.47;39.31
70343;BME280;57767;42.068;24.752;2022-09-09T05:40:32;99135.38;;;27.55;39.47
70343;BME280;57767;42.068;24.752;2022-09-09T05:41:33;99134.63;;;27.63;39.76
70343;BME280;57767;42.068;24.752;2022-09-09T05:42:36;99132.13;;;27.75;38.21
70343;BME280;57767;42.068;24.752;2022-09-09T05:43:39;99134.22;;;27.78;37.84
70343;BME280;57767;42.068;24.752;2022-09-09T05:44:40;99140.75;;;27.77;38.34
70343;BME280;57767;42.068;24.752;2022-09-09T05:45:43;99148.41;;;27.75;38.52
70343;BME280;57767;42.068;24.752;2022-09-09T05:46:45;99149.53;;;27.74;38.51
70343;BME280;57767;42.068;24.752;2022-09-09T05:47:51;99141.56;;;27.77;38.10
70343;BME280;57767;42.068;24.752;2022-09-09T05:48:54;99147.81;;;27.87;38.23
70343;BME280;57767;42.068;24.752;2022-09-09T05:49:56;99144.28;;;27.77;38.21
70343;BME280;57767;42.068;24.752;2022-09-09T05:50:59;99150.28;;;27.66;38.24
70343;BME280;57767;42.068;24.752;2022-09-09T05:52:01;99136.72;;;27.66;39.42
70343;BME280;57767;42.068;24.752;2022-09-09T05:53:05;99144.56;;;27.67;39.45
70343;BME280;57767;42.068;24.752;2022-09-09T05:54:07;99129.28;;;27.71;38.96
70343;BME280;57767;42.068;24.752;2022-09-09T05:55:08;99142.56;;;27.90;39.05
70343;BME280;57767;42.068;24.752;2022-09-09T05:56:15;99130.94;;;27.98;38.33
70343;BME280;57767;42.068;24.752;2022-09-09T05:57:17;99138.38;;;28.24;37.68
70343;BME280;57767;42.068;24.752;2022-09-09T05:58:20;99143.31;;;28.39;37.67
70343;BME280;57767;42.068;24.752;2022-09-09T05:59:22;99140.00;;;28.59;37.88
70343;BME280;57767;42.068;24.752;2022-09-09T06:00:25;99140.00;;;28.68;37.48
70343;BME280;57767;42.068;24.752;2022-09-09T06:01:33;99144.31;;;28.77;37.88
70343;BME280;57767;42.068;24.752;2022-09-09T06:02:35;99139.72;;;28.86;37.26
70343;BME280;57767;42.068;24.752;2022-09-09T06:03:40;99146.22;;;29.03;37.06
70343;BME280;57767;42.068;24.752;2022-09-09T06:04:42;99143.63;;;29.15;36.91
70343;BME280;57767;42.068;24.752;2022-09-09T06:05:44;99141.25;;;29.22;36.61
70343;BME280;57767;42.068;24.752;2022-09-09T06:06:45;99137.22;;;29.28;36.58
70343;BME280;57767;42.068;24.752;2022-09-09T06:07:47;99129.19;;;29.40;36.24
70343;BME280;57767;42.068;24.752;2022-09-09T06:08:54;99124.03;;;29.56;36.20
70343;BME280;57767;42.068;24.752;2022-09-09T06:09:56;99129.31;;;29.52;35.66
70343;BME280;57767;42.068;24.752;2022-09-09T06:11:05;99117.41;;;29.66;35.69
70343;BME280;57767;42.068;24.752;2022-09-09T06:12:08;99116.28;;;29.75;35.97
70343;BME280;57767;42.068;24.752;2022-09-09T06:13:10;99103.88;;;29.86;35.18
70343;BME280;57767;42.068;24.752;2022-09-09T06:14:12;99088.94;;;29.92;35.30
70343;BME280;57767;42.068;24.752;2022-09-09T06:15:14;99104.41;;;30.09;34.68
70343;BME280;57767;42.068;24.752;2022-09-09T06:16:17;99111.31;;;30.27;34.53
70343;BME280;57767;42.068;24.752;2022-09-09T06:17:20;99114.91;;;30.40;34.42
70343;BME280;57767;42.068;24.752;2022-09-09T06:18:21;99110.16;;;30.58;33.50
70343;BME280;57767;42.068;24.752;2022-09-09T06:19:23;99122.28;;;30.81;33.91